CHICAGO AURORA MUNICIPAL, IL, United States (KARR) 41-46N 088-28W 215M
Wind: from the NE (040 degrees) at 8 MPH (7 KT):0
Visibility: 4 mile(s):0
Sky conditions: overcast
Weather: mist
Temperature: 32.0 F (0.0 C)
Windchill: 24 F (-4 C):1
Dew Point: 28.9 F (-1.7 C)
Relative Humidity: 88%
Pressure (altimeter): 30.36 in. Hg (1028 hPa)
ob: KARR 081252Z 04007KT 4SM BR OVC023 00/M02 A3036 RMK AO2 SLP290 T00001017
Raw METAR:KARR 081252Z 04007KT 4SM BR OVC023 00/M02 A3036 RMK AO2 SLP290 T00001017
cycle: 13
Back to top

CHICAGO/WEST CH DUPAGE, IL, United States (KDPA) 41-54N 88-15W 230M
Wind: from the N (360 degrees) at 6 MPH (5 KT):0
Visibility: 6 mile(s):0
Sky conditions: overcast
Weather: mist
Temperature: 32.0 F (0.0 C)
Windchill: 26 F (-3 C):1
Dew Point: 28.0 F (-2.2 C)
Relative Humidity: 85%
Pressure (altimeter): 30.37 in. Hg (1028 hPa)
ob: KDPA 081252Z 36005KT 6SM BR OVC024 00/M02 A3037 RMK AO2 SLP291 T00001022
Raw METAR:KDPA 081252Z 36005KT 6SM BR OVC024 00/M02 A3037 RMK AO2 SLP291 T00001022
cycle: 13
Back to top

De Kalb, De Kalb Taylor Municipal Airport, IL, United States (KDKB) 41-55-55N 088-42-30W
Wind: from the E (080 degrees) at 3 MPH (3 KT):0
Visibility: 7 mile(s):0
Sky conditions: overcast
Temperature: 32.2 F (0.1 C)
Dew Point: 31.6 F (-0.2 C)
Relative Humidity: 97%
Pressure (altimeter): 30.39 in. Hg (1029 hPa)
ob: KDKB 081335Z AUTO 08003KT 7SM OVC022 00/00 A3039 RMK AO2 T00011002
Raw METAR:KDKB 081335Z AUTO 08003KT 7SM OVC022 00/00 A3039 RMK AO2 T00011002
cycle: 13
Back to top

Joliet, Joliet Regional Airport, IL, United States (KJOT) 41-31-05N 088-10-31W
Wind: Calm:0
Visibility: 5 mile(s):0
Sky conditions: mostly cloudy
Weather: mist
Temperature: 34.3 F (1.3 C)
Dew Point: 31.1 F (-0.5 C)
Relative Humidity: 87%
Pressure (altimeter): 30.39 in. Hg (1029 hPa)
ob: KJOT 081335Z AUTO 00000KT 5SM BR BKN027 01/00 A3039 RMK AO2 T00131005
Raw METAR:KJOT 081335Z AUTO 00000KT 5SM BR BKN027 01/00 A3039 RMK AO2 T00131005
cycle: 13
Back to top

Kankakee, Greater Kankakee Airport, IL, United States (KIKK) 41-04-17N 087-50-47W
Wind: from the E (080 degrees) at 8 MPH (7 KT):0
Visibility: 7 mile(s):0
Sky conditions: overcast
Temperature: 36.7 F (2.6 C)
Dew Point: 33.3 F (0.7 C)
Relative Humidity: 87%
Pressure (altimeter): 30.37 in. Hg (1028 hPa)
ob: KIKK 081335Z AUTO 08007KT 7SM OVC020 03/01 A3037 RMK AO2 T00260007
Raw METAR:KIKK 081335Z AUTO 08007KT 7SM OVC020 03/01 A3037 RMK AO2 T00260007
cycle: 13
Back to top

Morris, Morris Municipal-James R Washburn Field Airport, IL, United States (KC09) 41-25-31N 088-25-07W
Wind: from the NE (050 degrees) at 3 MPH (3 KT):0
Visibility: 5 mile(s):0
Sky conditions: overcast
Weather: mist
Temperature: 32.0 F (0.0 C)
Dew Point: 31.5 F (-0.3 C)
Relative Humidity: 97%
Pressure (altimeter): 30.37 in. Hg (1028 hPa)
ob: KC09 081335Z AUTO 05003KT 5SM BR OVC024 00/00 A3037 RMK AO2 T00001003
Raw METAR:KC09 081335Z AUTO 05003KT 5SM BR OVC024 00/00 A3037 RMK AO2 T00001003
cycle: 13
Back to top

Peru, Illinois Valley Regional-Walter A Duncan Field Airport, IL, United States (KVYS) 41-21-07N 089-09-11W
Wind: from the ENE (070 degrees) at 9 MPH (8 KT):0
Visibility: 5 mile(s):0
Sky conditions: overcast
Weather: mist
Temperature: 34.0 F (1.1 C)
Windchill: 26 F (-3 C):1
Dew Point: 30.7 F (-0.7 C)
Relative Humidity: 87%
Pressure (altimeter): 30.37 in. Hg (1028 hPa)
ob: KVYS 081335Z AUTO 07008KT 5SM BR OVC024 01/M01 A3037 RMK AO2 T00111007
Raw METAR:KVYS 081335Z AUTO 07008KT 5SM BR OVC024 01/M01 A3037 RMK AO2 T00111007
cycle: 13
Back to top

Rochelle, Rochelle Municipal-Koritz Field Airport, IL, United States (KRPJ) 41-53-35N 089-04-42W
Wind: from the ENE (070 degrees) at 3 MPH (3 KT):0
Visibility: 4 mile(s):0
Sky conditions: overcast
Weather: mist
Temperature: 31.1 F (-0.5 C)
Dew Point: 31.1 F (-0.5 C)
Relative Humidity: 100%
Pressure (altimeter): 30.39 in. Hg (1029 hPa)
ob: KRPJ 081335Z AUTO 07003KT 4SM BR OVC021 00/00 A3039 RMK AO2 T10051005 TSNO
Raw METAR:KRPJ 081335Z AUTO 07003KT 4SM BR OVC021 00/00 A3039 RMK AO2 T10051005 TSNO
cycle: 13
Back to top